Satellite Actuals Today Synoptics Week ahead

Weather information and forecast links for Shobdon, the Midlands, Western England and Wales

Today:

BBC Leominster local forecast and regional video.

Met Office general forecast

Met Office F214 and F215 charts (as displayed in the Aero Club each day) You have to register to use this site, but it is free.

Links to pretty much everything you need Rackham's home.

Satellite Met Office or Sat24 - visual for lower cloud, infrared for upper cloud.

XCWeather Wind map and local forecast

Will it Rain Today?

TAFs and METARs EGBB:Birmingham EGFF:Cardiff EGVN:Brize Norton

Local forecasts Met Office  MetCheck  Weatherweb

RASP Ridge wind forecast

Dewpoint+Temperature tephigram UK Soundings or Weather online


Other Club sites:Dunstable  Lasham  Nympsfield Long Mynd

Shobdon Hangar web-cam facing Southwest

Latest TAFs

Birmingham

2019/04/23 12:12
TAF TAF EGBB 231106Z 2312/2412 08012KT CAVOK 
      TEMPO 2402/2408 9000 PROB30 2403/2408 BKN006 
      TEMPO 2408/2412 6000 SHRA PROB30 
      TEMPO 2409/2412 08015G25KT 3000 +SHRA TSRA BKN011CB

Brize Norton

2019/04/23 15:40
TAF EGVN 231317Z 2315/2415 08008KT CAVOK PROB30 2403/2408 6000 HZ 
      TEMPO 2409/2415 5000 SHRA SCT018 PROB30 
      TEMPO 2411/2415 15015G25KT 3500 +SHRA SCT012CB

Cardiff

2019/04/23 12:12
TAF EGFF 231106Z 2312/2412 07010KT CAVOK 
      BECMG 2315/2318 VRB04KT PROB40 
      TEMPO 2320/2409 SHRA BKN045CB 
      BECMG 2321/2324 07010KT 
      TEMPO 2409/2412 6000 SHRA PROB40 
      TEMPO 2409/2412 08015G25KT 3000 +SHRA TSRA BKN011CB

Select station

2019/04/23 12:09
TAF EGCC 231106Z 2312/2418 09009KT CAVOK PROB30 
      TEMPO 2318/2412 12015G25KT PROB30 2400/2410 8000 
      TEMPO 2413/2418 7000 SHRA BKN045 PROB30 
      TEMPO 2413/2418 3000 +SHRA TSGS BKN014 BKN025CB 
      BECMG 2415/2418 15015G25KT

Decode?  - Copy the TAF (from the station code) and paste it into the METARs/TAFs box here.

Soaring data for today

Data provided by RASP

Today's Forecast for Shobdon (52.24207,-2.87443)
Stars rating
Wind direction
Wind speed
Cumrasp-uk.ukulus potential
Surface Sunshine
Surface Temperature
MSL Pressuree
Rainfall